createdAt,value
2023-05-21T00:00:28.754Z,70.71
2023-05-21T00:01:28.381Z,59.27
2023-05-21T00:02:28.469Z,67.85
2023-05-21T00:03:28.556Z,76.10
2023-05-21T00:04:28.420Z,75.41
2023-05-21T00:05:28.455Z,70.67
2023-05-21T00:06:28.635Z,75.19
2023-05-21T00:07:28.481Z,68.57
2023-05-21T00:08:28.461Z,70.31
2023-05-21T00:09:28.457Z,67.80
2023-05-21T00:10:28.465Z,67.97
2023-05-21T00:11:28.492Z,65.85
2023-05-21T00:12:28.472Z,75.36
2023-05-21T00:13:28.492Z,79.03
2023-05-21T00:14:28.492Z,74.55
2023-05-21T00:15:28.506Z,64.21
2023-05-21T00:16:28.541Z,69.33
2023-05-21T00:17:28.595Z,77.50
2023-05-21T00:18:28.517Z,77.10
2023-05-21T00:19:28.620Z,82.30
2023-05-21T00:20:28.550Z,82.88
2023-05-21T00:21:28.587Z,85.84
2023-05-21T00:22:28.583Z,81.11
2023-05-21T00:23:28.616Z,65.78
2023-05-21T00:24:28.613Z,70.23
2023-05-21T00:25:28.659Z,75.15
2023-05-21T00:26:28.662Z,78.43
2023-05-21T00:27:28.770Z,83.10
2023-05-21T00:28:28.908Z,87.80
2023-05-21T00:29:29.036Z,85.58
2023-05-21T00:30:29.068Z,82.98
2023-05-21T00:31:29.163Z,78.04
2023-05-21T00:32:29.141Z,81.35
2023-05-21T00:33:29.176Z,66.89
2023-05-21T00:34:29.209Z,66.78
2023-05-21T00:35:29.343Z,72.22
2023-05-21T00:36:29.470Z,68.10
2023-05-21T00:37:29.588Z,76.77
2023-05-21T00:38:29.663Z,84.91
2023-05-21T00:39:29.666Z,94.09
2023-05-21T00:40:29.700Z,91.12
2023-05-21T00:41:29.731Z,78.89
2023-05-21T00:42:29.808Z,79.19
2023-05-21T00:43:29.794Z,79.35
2023-05-21T00:44:29.825Z,80.73
2023-05-21T00:45:29.990Z,80.50
2023-05-21T00:46:29.906Z,83.22
2023-05-21T00:47:29.893Z,88.57
2023-05-21T00:48:29.807Z,96.61
2023-05-21T00:49:29.839Z,98.41
2023-05-21T00:50:29.844Z,97.61
2023-05-21T00:51:29.833Z,90.59
2023-05-21T00:52:29.857Z,99.62
2023-05-21T00:53:29.853Z,101.85
2023-05-21T00:54:29.859Z,90.91
2023-05-21T00:55:29.852Z,91.46
2023-05-21T00:56:29.855Z,88.89
2023-05-21T00:57:29.884Z,93.89
2023-05-21T00:58:29.860Z,94.02
2023-05-21T00:59:29.879Z,85.70
2023-05-21T01:00:29.948Z,86.35
2023-05-21T01:01:29.938Z,92.27
2023-05-21T01:02:29.990Z,87.14
2023-05-21T01:03:30.036Z,78.33
2023-05-21T01:04:30.013Z,75.02
2023-05-21T01:05:30.041Z,77.05
2023-05-21T01:06:30.087Z,85.24
2023-05-21T01:07:30.117Z,73.83
2023-05-21T01:08:30.193Z,75.24
2023-05-21T01:09:30.186Z,86.57
2023-05-21T01:10:30.224Z,93.88
2023-05-21T01:11:30.254Z,94.50
2023-05-21T01:12:30.293Z,101.74
2023-05-21T01:13:30.320Z,103.08
2023-05-21T01:14:30.362Z,103.67
2023-05-21T01:15:30.400Z,107.81
2023-05-21T01:16:30.435Z,112.39
2023-05-21T01:17:30.491Z,111.97
2023-05-21T01:18:30.529Z,111.06
2023-05-21T01:19:30.576Z,109.30
2023-05-21T01:20:30.583Z,106.32
2023-05-21T01:21:30.610Z,100.76
2023-05-21T01:22:30.651Z,98.95
2023-05-21T01:23:30.688Z,95.84
2023-05-21T01:24:30.729Z,90.04
2023-05-21T01:25:30.762Z,95.00
2023-05-21T01:26:30.827Z,97.05
2023-05-21T01:27:30.828Z,96.02
2023-05-21T01:28:30.861Z,103.48
2023-05-21T01:29:30.972Z,113.52
2023-05-21T01:30:30.965Z,113.87
2023-05-21T01:31:31.006Z,109.73
2023-05-21T01:32:31.093Z,114.99
2023-05-21T01:33:31.096Z,103.98
2023-05-21T01:34:31.109Z,99.92
2023-05-21T01:35:31.173Z,107.80
2023-05-21T01:36:31.170Z,106.74
2023-05-21T01:37:31.223Z,110.05
2023-05-21T01:38:31.251Z,105.27
2023-05-21T01:39:31.286Z,109.27
2023-05-21T01:40:31.351Z,106.52
2023-05-21T01:41:31.406Z,105.76
2023-05-21T01:42:31.431Z,103.65
2023-05-21T01:43:31.451Z,99.45
2023-05-21T01:44:31.502Z,92.57
2023-05-21T01:45:31.540Z,93.82
2023-05-21T01:46:31.588Z,102.98
2023-05-21T01:47:31.589Z,103.21
2023-05-21T01:48:31.595Z,94.96
2023-05-21T01:49:31.584Z,92.75
2023-05-21T01:50:31.589Z,87.99
2023-05-21T01:51:31.589Z,81.53
2023-05-21T01:52:31.591Z,81.55
2023-05-21T01:53:31.591Z,88.02
2023-05-21T01:54:31.590Z,88.18
2023-05-21T01:55:31.593Z,90.17
2023-05-21T01:56:31.622Z,99.11
2023-05-21T01:57:31.638Z,105.95
2023-05-21T01:58:31.600Z,100.07
2023-05-21T01:59:31.630Z,98.30
2023-05-21T02:00:31.656Z,91.31
2023-05-21T02:01:31.666Z,88.78
2023-05-21T02:02:31.674Z,87.33
2023-05-21T02:03:31.844Z,94.30
2023-05-21T02:04:31.730Z,91.56
2023-05-21T02:05:31.773Z,89.58
2023-05-21T02:06:31.819Z,88.49
2023-05-21T02:07:31.854Z,84.56
2023-05-21T02:08:31.886Z,86.24
2023-05-21T02:09:31.935Z,90.00
2023-05-21T02:10:31.984Z,88.49
2023-05-21T02:11:32.035Z,82.95
2023-05-21T02:12:32.099Z,88.83
2023-05-21T02:13:32.061Z,96.62
2023-05-21T02:14:32.148Z,91.52
2023-05-21T02:15:32.211Z,86.73
2023-05-21T02:16:32.226Z,86.79
2023-05-21T02:17:32.257Z,94.37
2023-05-21T02:18:32.302Z,99.83
2023-05-21T02:19:32.496Z,102.46
2023-05-21T02:20:32.370Z,102.29
2023-05-21T02:21:32.437Z,107.99
2023-05-21T02:22:32.439Z,109.45
2023-05-21T02:23:32.457Z,108.99
2023-05-21T02:24:32.510Z,95.85
2023-05-21T02:25:32.861Z,82.60
2023-05-21T02:26:32.607Z,90.87
2023-05-21T02:27:32.641Z,94.64
2023-05-21T02:28:32.689Z,102.35
2023-05-21T02:29:32.714Z,101.90
2023-05-21T02:30:32.792Z,95.20
2023-05-21T02:31:32.805Z,88.54
2023-05-21T02:32:32.877Z,78.55
2023-05-21T02:33:32.908Z,87.80
2023-05-21T02:34:32.913Z,97.49
2023-05-21T02:35:33.052Z,95.69
2023-05-21T02:36:33.060Z,85.67
2023-05-21T02:37:33.068Z,88.69
2023-05-21T02:38:33.107Z,82.07
2023-05-21T02:39:33.105Z,81.44
2023-05-21T02:40:33.187Z,85.70
2023-05-21T02:41:33.189Z,78.81
2023-05-21T02:42:33.226Z,88.07
2023-05-21T02:43:33.294Z,87.97
2023-05-21T02:44:33.363Z,90.06
2023-05-21T02:45:33.382Z,94.73
2023-05-21T02:46:33.400Z,106.78
2023-05-21T02:47:33.441Z,104.19
2023-05-21T02:48:33.479Z,99.93
2023-05-21T02:49:33.506Z,88.12
2023-05-21T02:50:33.531Z,89.97
2023-05-21T02:51:33.591Z,91.62
2023-05-21T02:52:33.721Z,86.99
2023-05-21T02:53:33.651Z,88.73
2023-05-21T02:54:33.682Z,81.02
2023-05-21T02:55:33.917Z,92.59
2023-05-21T02:56:33.776Z,94.35
2023-05-21T02:57:33.817Z,99.26
2023-05-21T02:58:33.857Z,99.76
2023-05-21T02:59:33.882Z,104.27
2023-05-21T03:00:33.949Z,87.94
2023-05-21T03:01:33.962Z,82.35
2023-05-21T03:02:34.056Z,93.60
2023-05-21T03:03:34.212Z,93.77
2023-05-21T03:04:34.096Z,93.28
2023-05-21T03:05:34.242Z,89.35
2023-05-21T03:06:34.164Z,96.32
2023-05-21T03:07:34.232Z,80.25
2023-05-21T03:08:34.262Z,88.87
2023-05-21T03:09:34.276Z,93.75
2023-05-21T03:10:34.344Z,96.80
2023-05-21T03:11:34.385Z,101.48
2023-05-21T03:12:34.453Z,99.95
2023-05-21T03:13:34.538Z,98.60
2023-05-21T03:14:34.522Z,95.56
2023-05-21T03:15:34.616Z,93.72
2023-05-21T03:16:34.711Z,89.19
2023-05-21T03:17:34.665Z,81.49
2023-05-21T03:18:34.664Z,73.17
2023-05-21T03:19:34.708Z,74.01
2023-05-21T03:20:34.756Z,83.51
2023-05-21T03:21:34.796Z,81.11
2023-05-21T03:22:34.831Z,88.88
2023-05-21T03:23:34.888Z,84.46
2023-05-21T03:24:34.920Z,82.76
2023-05-21T03:25:35.176Z,91.46
2023-05-21T03:26:35.012Z,91.02
2023-05-21T03:27:35.060Z,90.37
2023-05-21T03:28:35.128Z,77.00
2023-05-21T03:29:35.196Z,75.20
2023-05-21T03:30:35.201Z,70.82
2023-05-21T03:31:35.304Z,78.18
2023-05-21T03:32:35.306Z,84.30
2023-05-21T03:33:35.337Z,76.63
2023-05-21T03:34:35.378Z,86.65
2023-05-21T03:35:35.598Z,93.10
2023-05-21T03:36:35.452Z,94.35
2023-05-21T03:37:35.511Z,90.71
2023-05-21T03:38:37.060Z,83.78
2023-05-21T03:39:35.602Z,74.40
2023-05-21T03:40:35.652Z,86.43
2023-05-21T03:41:35.688Z,82.01
2023-05-21T03:42:35.727Z,86.21
2023-05-21T03:43:35.787Z,96.20
2023-05-21T03:44:35.842Z,101.76
2023-05-21T03:45:36.089Z,105.51
2023-05-21T03:46:35.938Z,105.76
2023-05-21T03:47:35.887Z,106.24
2023-05-21T03:48:35.874Z,106.55
2023-05-21T03:49:35.872Z,106.37
2023-05-21T03:50:35.911Z,103.58
2023-05-21T03:51:35.881Z,112.03
2023-05-21T03:52:35.885Z,112.13
2023-05-21T03:53:35.876Z,117.89
2023-05-21T03:54:35.902Z,116.37
2023-05-21T03:55:36.048Z,118.65
2023-05-21T03:56:35.889Z,109.42
2023-05-21T03:57:35.898Z,92.41
2023-05-21T03:58:35.926Z,100.85
2023-05-21T03:59:35.985Z,104.20
2023-05-21T04:00:36.026Z,100.32
2023-05-21T04:01:36.074Z,105.96
2023-05-21T04:02:36.156Z,102.86
2023-05-21T04:03:37.870Z,92.38
2023-05-21T04:04:36.195Z,97.63
2023-05-21T04:05:36.299Z,98.74
2023-05-21T04:06:36.166Z,102.74
2023-05-21T04:07:36.139Z,99.42
2023-05-21T04:08:36.143Z,87.41
2023-05-21T04:09:36.777Z,95.88
2023-05-21T04:10:36.185Z,95.96
2023-05-21T04:11:36.171Z,102.18
2023-05-21T04:12:36.177Z,109.53
2023-05-21T04:13:36.188Z,109.10
2023-05-21T04:14:36.169Z,108.20
2023-05-21T04:15:36.355Z,101.31
2023-05-21T04:16:36.259Z,101.65
2023-05-21T04:17:36.232Z,102.17
2023-05-21T04:18:36.186Z,98.11
2023-05-21T04:19:36.242Z,107.14
2023-05-21T04:20:36.218Z,112.27
2023-05-21T04:21:36.184Z,108.85
2023-05-21T04:22:36.181Z,111.20
2023-05-21T04:23:36.167Z,112.95
2023-05-21T04:24:36.156Z,112.42
2023-05-21T04:25:36.322Z,104.57
2023-05-21T04:26:36.194Z,110.60
2023-05-21T04:27:36.169Z,114.33
2023-05-21T04:28:36.194Z,112.18
2023-05-21T04:29:36.236Z,110.68
2023-05-21T04:30:36.288Z,112.73
2023-05-21T04:31:36.420Z,117.12
2023-05-21T04:32:36.444Z,105.07
2023-05-21T04:33:36.368Z,105.31
2023-05-21T04:34:36.377Z,105.92
2023-05-21T04:35:36.665Z,109.58
2023-05-21T04:36:36.379Z,114.57
2023-05-21T04:37:36.406Z,120.45
2023-05-21T04:38:36.403Z,119.73
2023-05-21T04:39:36.401Z,113.44
2023-05-21T04:40:36.688Z,111.46
2023-05-21T04:41:36.371Z,101.41
2023-05-21T04:42:36.383Z,105.82
2023-05-21T04:43:36.389Z,112.47
2023-05-21T04:44:36.362Z,120.47
2023-05-21T04:45:36.673Z,110.76
2023-05-21T04:46:36.464Z,115.01
2023-05-21T04:47:36.530Z,116.51
2023-05-21T04:48:36.540Z,112.75
2023-05-21T04:49:36.568Z,118.62
2023-05-21T04:50:36.634Z,124.94
2023-05-21T04:51:36.648Z,129.09
2023-05-21T04:52:36.699Z,123.46
2023-05-21T04:53:36.744Z,124.15
2023-05-21T04:54:36.767Z,118.60
2023-05-21T04:55:37.049Z,128.22
2023-05-21T04:56:36.879Z,118.73
2023-05-21T04:57:36.900Z,126.92
2023-05-21T04:58:36.935Z,126.11
2023-05-21T04:59:36.975Z,129.04
2023-05-21T05:00:37.123Z,133.08
2023-05-21T05:01:37.038Z,124.23
2023-05-21T05:02:37.135Z,124.12
2023-05-21T05:03:37.203Z,119.15
2023-05-21T05:04:37.164Z,115.19
2023-05-21T05:05:37.306Z,116.36
2023-05-21T05:06:37.235Z,110.28
2023-05-21T05:07:37.284Z,109.79
2023-05-21T05:08:37.315Z,112.73
2023-05-21T05:09:37.347Z,116.50
2023-05-21T05:10:37.386Z,118.86
2023-05-21T05:11:37.431Z,114.71
2023-05-21T05:12:37.442Z,118.30
2023-05-21T05:13:37.521Z,117.90
2023-05-21T05:14:37.526Z,116.94
2023-05-21T05:15:37.714Z,119.12
2023-05-21T05:16:37.663Z,112.18
2023-05-21T05:17:37.679Z,112.39
2023-05-21T05:18:37.681Z,108.14
2023-05-21T05:19:37.712Z,104.04
2023-05-21T05:20:37.754Z,106.97
2023-05-21T05:21:37.783Z,106.28
2023-05-21T05:22:37.835Z,109.10
2023-05-21T05:23:37.823Z,110.60
2023-05-21T05:24:37.862Z,109.86
2023-05-21T05:25:38.072Z,105.23
2023-05-21T05:26:37.952Z,104.41
2023-05-21T05:27:38.764Z,96.62
2023-05-21T05:28:37.965Z,89.15
2023-05-21T05:29:37.978Z,85.56
2023-05-21T05:30:38.085Z,77.96
2023-05-21T05:31:38.008Z,73.55
2023-05-21T05:32:38.091Z,79.47
2023-05-21T05:33:38.002Z,73.87
2023-05-21T05:34:38.023Z,78.14
2023-05-21T05:35:38.172Z,79.80
2023-05-21T05:36:38.007Z,82.73
2023-05-21T05:37:38.011Z,78.22
2023-05-21T05:38:38.008Z,76.72
2023-05-21T05:39:38.009Z,83.28
2023-05-21T05:40:38.111Z,79.50
2023-05-21T05:41:38.043Z,75.01
2023-05-21T05:42:38.063Z,75.84
2023-05-21T05:43:38.030Z,77.33
2023-05-21T05:44:38.047Z,75.88
2023-05-21T05:45:38.406Z,72.60
2023-05-21T05:46:38.246Z,77.65
2023-05-21T05:47:38.191Z,74.73
2023-05-21T05:48:38.160Z,76.38
2023-05-21T05:49:38.191Z,68.37
2023-05-21T05:50:38.232Z,67.52
2023-05-21T05:51:38.270Z,65.29
2023-05-21T05:52:38.334Z,61.36
2023-05-21T05:53:38.369Z,59.19
2023-05-21T05:54:38.387Z,60.69
2023-05-21T05:55:38.688Z,46.39
2023-05-21T05:56:38.466Z,43.34
2023-05-21T05:57:38.489Z,47.88
2023-05-21T05:58:38.518Z,52.39
2023-05-21T05:59:38.552Z,53.07
2023-05-21T06:00:38.621Z,48.95
2023-05-21T06:01:38.611Z,45.25
2023-05-21T06:02:38.754Z,47.01
2023-05-21T06:03:38.875Z,34.58
2023-05-21T06:04:38.719Z,37.07
2023-05-21T06:05:39.084Z,33.74
2023-05-21T06:06:38.769Z,29.06
2023-05-21T06:07:38.800Z,29.66
2023-05-21T06:08:38.839Z,27.76
2023-05-21T06:09:38.888Z,26.44
2023-05-21T06:10:38.908Z,25.49
2023-05-21T06:11:38.908Z,31.64
2023-05-21T06:12:38.933Z,25.57
2023-05-21T06:13:38.982Z,25.00
2023-05-21T06:14:39.012Z,24.17
2023-05-21T06:15:39.148Z,28.93
2023-05-21T06:16:39.195Z,27.60
2023-05-21T06:17:39.148Z,31.85
2023-05-21T06:18:39.128Z,30.88
2023-05-21T06:19:39.180Z,34.26
2023-05-21T06:20:39.166Z,31.63
2023-05-21T06:21:39.192Z,35.99
2023-05-21T06:22:39.240Z,39.07
2023-05-21T06:23:39.294Z,39.59
2023-05-21T06:24:39.268Z,47.48
2023-05-21T06:25:39.442Z,43.60
2023-05-21T06:26:39.274Z,45.95
2023-05-21T06:27:39.346Z,42.48
2023-05-21T06:28:39.367Z,45.52
2023-05-21T06:29:39.347Z,42.57
2023-05-21T06:30:39.409Z,44.41
2023-05-21T06:31:39.420Z,46.20
2023-05-21T06:32:39.616Z,48.21
2023-05-21T06:33:39.659Z,50.32
2023-05-21T06:34:39.530Z,49.22
2023-05-21T06:35:39.551Z,51.52
2023-05-21T06:36:39.596Z,50.26
2023-05-21T06:37:39.596Z,54.36
2023-05-21T06:38:39.605Z,50.65
2023-05-21T06:39:39.633Z,59.14
2023-05-21T06:40:39.637Z,59.77
2023-05-21T06:41:39.645Z,66.09
2023-05-21T06:42:39.738Z,68.25
2023-05-21T06:43:39.744Z,66.05
2023-05-21T06:44:39.751Z,68.13
2023-05-21T06:45:39.993Z,66.78
2023-05-21T06:46:39.781Z,66.75
2023-05-21T06:47:39.819Z,72.06
2023-05-21T06:48:39.801Z,64.41
2023-05-21T06:49:39.815Z,65.92
2023-05-21T06:50:39.801Z,66.05
2023-05-21T06:51:39.792Z,63.54
2023-05-21T06:52:39.817Z,67.05
2023-05-21T06:53:39.807Z,67.40
2023-05-21T06:54:39.866Z,71.78
2023-05-21T06:55:39.829Z,75.48
2023-05-21T06:56:39.864Z,72.21
2023-05-21T06:57:39.806Z,69.61
2023-05-21T06:58:39.810Z,74.65
2023-05-21T06:59:39.807Z,69.40
2023-05-21T07:00:39.807Z,75.07
2023-05-21T07:01:39.884Z,77.95
2023-05-21T07:02:39.879Z,78.71
2023-05-21T07:03:39.855Z,81.09
2023-05-21T07:04:39.938Z,82.88
2023-05-21T07:05:40.076Z,82.10
2023-05-21T07:06:39.811Z,77.87
2023-05-21T07:07:39.811Z,82.98
2023-05-21T07:08:39.812Z,82.54
2023-05-21T07:09:39.825Z,88.32
2023-05-21T07:10:39.824Z,89.72
2023-05-21T07:11:39.819Z,87.36
2023-05-21T07:12:39.829Z,83.39
2023-05-21T07:13:39.834Z,86.14
2023-05-21T07:14:39.815Z,89.81
2023-05-21T07:15:39.832Z,93.14
2023-05-21T07:16:39.874Z,95.22
2023-05-21T07:17:39.842Z,94.83
2023-05-21T07:18:39.830Z,94.24
2023-05-21T07:19:39.870Z,92.54
2023-05-21T07:20:39.845Z,93.06
2023-05-21T07:21:39.839Z,94.82
2023-05-21T07:22:39.871Z,92.68
2023-05-21T07:23:39.865Z,91.88
2023-05-21T07:24:39.849Z,95.92
2023-05-21T07:25:39.914Z,96.02
2023-05-21T07:26:39.901Z,98.51
2023-05-21T07:27:39.927Z,96.53
2023-05-21T07:28:39.925Z,102.48
2023-05-21T07:29:39.993Z,105.56
2023-05-21T07:30:40.026Z,92.45
2023-05-21T07:31:40.162Z,100.94
2023-05-21T07:32:40.162Z,99.96
2023-05-21T07:33:40.175Z,100.95
2023-05-21T07:34:40.205Z,105.20
2023-05-21T07:35:40.268Z,104.32
2023-05-21T07:36:40.295Z,115.38
2023-05-21T07:37:40.346Z,119.08
2023-05-21T07:38:40.382Z,121.71
2023-05-21T07:39:40.449Z,117.06
2023-05-21T07:40:40.556Z,116.35
2023-05-21T07:41:40.495Z,119.79
2023-05-21T07:42:40.518Z,125.38
2023-05-21T07:43:40.578Z,122.70
2023-05-21T07:44:40.623Z,123.27
2023-05-21T07:45:40.670Z,126.50
2023-05-21T07:46:40.758Z,126.08
2023-05-21T07:47:40.768Z,126.70
2023-05-21T07:48:40.773Z,123.37
2023-05-21T07:49:40.824Z,127.13
2023-05-21T07:50:40.844Z,130.89
2023-05-21T07:51:40.904Z,125.89
2023-05-21T07:52:40.950Z,132.12
2023-05-21T07:53:40.984Z,132.79
2023-05-21T07:54:40.989Z,136.18
2023-05-21T07:55:40.989Z,129.03
2023-05-21T07:56:41.031Z,137.08
2023-05-21T07:57:41.111Z,137.38
2023-05-21T07:58:41.209Z,136.89
2023-05-21T07:59:41.168Z,136.05
2023-05-21T08:00:41.205Z,136.94
2023-05-21T08:01:41.283Z,137.44
2023-05-21T08:02:41.379Z,136.88
2023-05-21T08:03:41.355Z,140.91
2023-05-21T08:04:41.596Z,139.89
2023-05-21T08:05:41.382Z,138.97
2023-05-21T08:06:41.398Z,139.30
2023-05-21T08:07:41.429Z,142.79
2023-05-21T08:08:41.416Z,142.43
2023-05-21T08:09:41.463Z,145.49
2023-05-21T08:10:41.514Z,143.23
2023-05-21T08:11:41.560Z,143.73
2023-05-21T08:12:41.564Z,144.99
2023-05-21T08:13:41.601Z,145.58
2023-05-21T08:14:41.636Z,146.90
2023-05-21T08:15:41.678Z,146.48
2023-05-21T08:16:41.759Z,150.02
2023-05-21T08:17:41.892Z,151.46
2023-05-21T08:18:41.908Z,144.62
2023-05-21T08:19:41.891Z,147.59
2023-05-21T08:20:41.965Z,143.96
2023-05-21T08:21:41.981Z,148.90
2023-05-21T08:22:42.034Z,154.56
2023-05-21T08:23:42.141Z,149.31
2023-05-21T08:24:42.162Z,152.66
2023-05-21T08:25:42.214Z,155.45
2023-05-21T08:26:42.281Z,153.56
2023-05-21T08:27:42.312Z,157.24
2023-05-21T08:28:42.372Z,158.89
2023-05-21T08:29:42.414Z,157.62
2023-05-21T08:30:42.952Z,159.59
2023-05-21T08:31:42.550Z,163.78
2023-05-21T08:32:42.624Z,154.38
2023-05-21T08:33:42.665Z,160.60
2023-05-21T08:34:42.712Z,158.07
2023-05-21T08:35:42.966Z,159.88
2023-05-21T08:36:42.831Z,158.33
2023-05-21T08:37:42.866Z,158.32
2023-05-21T08:38:42.906Z,155.72
2023-05-21T08:39:42.976Z,159.75
2023-05-21T08:40:43.039Z,162.49
2023-05-21T08:41:43.085Z,162.06
2023-05-21T08:42:43.166Z,163.42
2023-05-21T08:43:43.211Z,160.13
2023-05-21T08:44:43.260Z,166.39
2023-05-21T08:45:43.333Z,172.20
2023-05-21T08:46:43.368Z,169.28
2023-05-21T08:47:43.487Z,164.95
2023-05-21T08:48:43.487Z,166.74
2023-05-21T08:49:43.534Z,161.67
2023-05-21T08:50:43.615Z,161.09
2023-05-21T08:51:43.624Z,158.57
2023-05-21T08:52:43.700Z,158.36
2023-05-21T08:53:43.768Z,152.68
2023-05-21T08:54:43.816Z,153.02
2023-05-21T08:55:43.897Z,149.50
2023-05-21T08:56:43.945Z,150.08
2023-05-21T08:57:43.992Z,149.42
2023-05-21T08:58:44.052Z,150.26
2023-05-21T08:59:44.098Z,150.71
2023-05-21T09:00:44.169Z,145.97
2023-05-21T09:01:44.238Z,145.19
2023-05-21T09:02:44.357Z,141.50
2023-05-21T09:03:44.331Z,140.63
2023-05-21T09:04:44.385Z,138.05
2023-05-21T09:05:44.390Z,136.71
2023-05-21T09:06:44.446Z,130.40
2023-05-21T09:07:44.465Z,127.54
2023-05-21T09:08:44.537Z,118.39
2023-05-21T09:09:44.591Z,116.55
2023-05-21T09:10:44.660Z,112.77
2023-05-21T09:11:44.707Z,112.95
2023-05-21T09:12:44.747Z,113.54
2023-05-21T09:13:44.779Z,108.42
2023-05-21T09:14:44.892Z,107.14
2023-05-21T09:15:44.891Z,98.41
2023-05-21T09:16:44.960Z,94.87
2023-05-21T09:17:44.999Z,93.47
2023-05-21T09:18:45.095Z,90.42
2023-05-21T09:19:45.077Z,85.94
2023-05-21T09:20:45.109Z,80.62
2023-05-21T09:21:45.155Z,81.10
2023-05-21T09:22:45.206Z,79.95
2023-05-21T09:23:45.243Z,71.25
2023-05-21T09:24:45.299Z,75.73
2023-05-21T09:25:45.353Z,78.07
2023-05-21T09:26:45.387Z,73.67
2023-05-21T09:27:45.418Z,68.28
2023-05-21T09:28:45.486Z,61.01
2023-05-21T09:29:45.528Z,54.29
2023-05-21T09:30:45.585Z,55.95
2023-05-21T09:31:45.750Z,53.33
2023-05-21T09:32:45.734Z,36.71
2023-05-21T09:33:45.705Z,37.72
2023-05-21T09:34:45.775Z,35.18
2023-05-21T09:35:45.822Z,30.51
2023-05-21T09:36:45.854Z,28.00
2023-05-21T09:37:45.910Z,26.22
2023-05-21T09:38:45.990Z,24.08
2023-05-21T09:39:45.971Z,27.44
2023-05-21T09:40:46.047Z,27.72
2023-05-21T09:41:46.058Z,25.00
2023-05-21T09:42:46.102Z,25.00
2023-05-21T09:43:46.133Z,27.68
2023-05-21T09:44:46.188Z,27.79
2023-05-21T09:45:46.234Z,31.20
2023-05-21T09:46:46.310Z,31.73
2023-05-21T09:47:46.390Z,30.71
2023-05-21T09:48:46.349Z,31.45
2023-05-21T09:49:46.420Z,26.36
2023-05-21T09:50:46.454Z,25.67
2023-05-21T09:51:46.486Z,23.90
2023-05-21T09:52:46.523Z,21.00
2023-05-21T09:53:46.560Z,28.73
2023-05-21T09:54:46.593Z,28.11
2023-05-21T09:55:46.698Z,28.92
2023-05-21T09:56:46.699Z,33.93
2023-05-21T09:57:48.129Z,41.08
2023-05-21T09:58:46.749Z,40.51
2023-05-21T09:59:46.704Z,27.64
2023-05-21T10:00:46.709Z,26.28
2023-05-21T10:01:46.741Z,26.97
2023-05-21T10:02:46.766Z,24.47
2023-05-21T10:03:48.170Z,29.51
2023-05-21T10:04:46.782Z,29.60
2023-05-21T10:05:46.627Z,30.97
2023-05-21T10:06:46.596Z,31.67
2023-05-21T10:07:46.584Z,30.48
2023-05-21T10:08:46.552Z,35.73
2023-05-21T10:09:46.542Z,31.42
2023-05-21T10:10:46.534Z,25.00
2023-05-21T10:11:46.506Z,28.00
2023-05-21T10:12:46.490Z,25.71
2023-05-21T10:13:46.474Z,27.97
2023-05-21T10:14:46.460Z,38.22
2023-05-21T10:15:47.071Z,36.80
2023-05-21T10:16:46.451Z,30.30
2023-05-21T10:17:46.452Z,33.47
2023-05-21T10:18:46.442Z,37.97
2023-05-21T10:19:46.377Z,30.97
2023-05-21T10:20:46.364Z,27.39
2023-05-21T10:21:46.339Z,27.41
2023-05-21T10:22:46.330Z,24.74
2023-05-21T10:23:46.300Z,26.55
2023-05-21T10:24:46.304Z,31.85
2023-05-21T10:25:46.284Z,34.57
2023-05-21T10:26:46.270Z,28.42
2023-05-21T10:27:46.270Z,25.55
2023-05-21T10:28:46.305Z,28.45
2023-05-21T10:29:46.340Z,31.90
2023-05-21T10:30:46.387Z,36.07
2023-05-21T10:31:46.460Z,33.25
2023-05-21T10:32:46.685Z,27.94
2023-05-21T10:33:46.508Z,26.37
2023-05-21T10:34:46.542Z,31.89
2023-05-21T10:35:46.599Z,33.33
2023-05-21T10:36:46.626Z,39.96
2023-05-21T10:37:46.666Z,46.24
2023-05-21T10:38:46.697Z,48.63
2023-05-21T10:39:46.752Z,45.12
2023-05-21T10:40:46.780Z,39.54
2023-05-21T10:41:46.819Z,42.39
2023-05-21T10:42:46.854Z,37.77
2023-05-21T10:43:46.924Z,31.47
2023-05-21T10:44:46.939Z,34.25
2023-05-21T10:45:46.998Z,29.27
2023-05-21T10:46:47.018Z,29.74
2023-05-21T10:47:47.142Z,28.05
2023-05-21T10:48:47.097Z,32.12
2023-05-21T10:49:47.124Z,36.62
2023-05-21T10:50:47.163Z,35.08
2023-05-21T10:51:47.247Z,49.53
2023-05-21T10:52:47.233Z,48.25
2023-05-21T10:53:47.270Z,48.41
2023-05-21T10:54:47.305Z,40.85
2023-05-21T10:55:47.359Z,42.52
2023-05-21T10:56:47.393Z,38.88
2023-05-21T10:57:47.406Z,38.40
2023-05-21T10:58:47.449Z,35.26
2023-05-21T10:59:47.551Z,31.93
2023-05-21T11:00:47.605Z,27.27
2023-05-21T11:01:47.664Z,26.26
2023-05-21T11:02:47.693Z,29.44
2023-05-21T11:03:47.666Z,26.37
2023-05-21T11:04:47.665Z,25.00
2023-05-21T11:05:47.709Z,25.67
2023-05-21T11:06:47.801Z,27.37
2023-05-21T11:07:47.780Z,26.75
2023-05-21T11:08:47.817Z,29.50
2023-05-21T11:09:47.838Z,26.08
2023-05-21T11:10:47.883Z,32.16
2023-05-21T11:11:47.918Z,25.34
2023-05-21T11:12:47.951Z,26.94
2023-05-21T11:13:47.988Z,28.16
2023-05-21T11:14:48.023Z,26.77
2023-05-21T11:15:48.063Z,26.47
2023-05-21T11:16:48.148Z,26.77
2023-05-21T11:17:48.185Z,29.69
2023-05-21T11:18:48.237Z,29.75
2023-05-21T11:19:48.167Z,25.69
2023-05-21T11:20:48.171Z,17.92
2023-05-21T11:21:48.132Z,22.29
2023-05-21T11:22:48.137Z,25.98
2023-05-21T11:23:48.089Z,26.33
2023-05-21T11:24:50.502Z,25.50
2023-05-21T11:25:48.071Z,29.27
2023-05-21T11:26:48.059Z,29.96
2023-05-21T11:27:48.035Z,28.42
2023-05-21T11:28:48.021Z,25.37
2023-05-21T11:29:47.989Z,27.55
2023-05-21T11:30:48.035Z,32.84
2023-05-21T11:31:48.010Z,25.00
2023-05-21T11:32:47.948Z,34.38
2023-05-21T11:33:47.934Z,33.17
2023-05-21T11:34:47.938Z,31.03
2023-05-21T11:35:47.888Z,25.00
2023-05-21T11:36:47.882Z,31.50
2023-05-21T11:37:47.859Z,28.18
2023-05-21T11:38:47.841Z,36.27
2023-05-21T11:39:47.819Z,33.28
2023-05-21T11:40:47.795Z,28.08
2023-05-21T11:41:47.780Z,32.15
2023-05-21T11:42:47.769Z,38.53
2023-05-21T11:43:47.749Z,42.85
2023-05-21T11:44:47.727Z,46.00
2023-05-21T11:45:47.716Z,51.77
2023-05-21T11:46:47.724Z,57.15
2023-05-21T11:47:47.666Z,55.33
2023-05-21T11:48:47.665Z,54.11
2023-05-21T11:49:47.621Z,50.30
2023-05-21T11:50:47.612Z,48.57
2023-05-21T11:51:47.608Z,53.97
2023-05-21T11:52:47.565Z,51.80
2023-05-21T11:53:47.553Z,50.28
2023-05-21T11:54:47.545Z,51.61
2023-05-21T11:55:47.498Z,49.78
2023-05-21T11:56:47.481Z,51.42
2023-05-21T11:57:47.475Z,57.91
2023-05-21T11:58:47.447Z,62.16
2023-05-21T11:59:47.430Z,66.20
2023-05-21T12:00:47.432Z,69.96
2023-05-21T12:01:47.403Z,62.34
2023-05-21T12:02:47.535Z,52.00
2023-05-21T12:03:47.449Z,41.84
2023-05-21T12:04:47.359Z,47.71
2023-05-21T12:05:47.384Z,45.03
2023-05-21T12:06:47.377Z,43.78
2023-05-21T12:07:47.426Z,40.64
2023-05-21T12:08:47.470Z,47.17
2023-05-21T12:09:47.523Z,44.03
2023-05-21T12:10:47.558Z,41.59
2023-05-21T12:11:47.591Z,38.64
2023-05-21T12:12:55.720Z,29.96
2023-05-21T12:13:48.688Z,30.21
2023-05-21T12:14:47.612Z,31.21
2023-05-21T12:15:47.628Z,32.76
2023-05-21T12:16:47.646Z,32.86
2023-05-21T12:17:47.589Z,42.20
2023-05-21T12:18:47.602Z,48.80
2023-05-21T12:19:47.538Z,45.34
2023-05-21T12:20:47.533Z,43.21
2023-05-21T12:21:47.509Z,44.67
2023-05-21T12:22:47.474Z,44.77
2023-05-21T12:23:47.466Z,45.77
2023-05-21T12:24:47.449Z,45.48
2023-05-21T12:25:47.451Z,45.86
2023-05-21T12:26:47.434Z,52.31
2023-05-21T12:27:47.409Z,51.68
2023-05-21T12:28:47.403Z,46.05
2023-05-21T12:29:47.377Z,39.87
2023-05-21T12:30:47.383Z,38.23
2023-05-21T12:31:47.355Z,39.31
2023-05-21T12:32:47.345Z,32.25
2023-05-21T12:33:47.330Z,32.40
2023-05-21T12:34:47.306Z,33.97
2023-05-21T12:35:47.302Z,37.06
2023-05-21T12:36:47.294Z,37.76
2023-05-21T12:37:47.258Z,33.80
2023-05-21T12:38:47.231Z,41.30
2023-05-21T12:39:47.221Z,36.55
2023-05-21T12:40:47.219Z,30.43
2023-05-21T12:41:47.205Z,36.29
2023-05-21T12:42:47.190Z,28.73
2023-05-21T12:43:47.186Z,31.09
2023-05-21T12:44:47.169Z,33.08